sensor_id;sensor_type;location;lat;lon;timestamp;P1;durP1;ratioP1;P2;durP2;ratioP2
58017;SDS011;43810;50.860;19.226;2023-02-15T00:01:34;44.58;;;19.17;;
58017;SDS011;43810;50.860;19.226;2023-02-15T00:04:01;49.22;;;21.98;;
58017;SDS011;43810;50.860;19.226;2023-02-15T00:06:28;53.42;;;22.23;;
58017;SDS011;43810;50.860;19.226;2023-02-15T00:08:54;45.35;;;22.23;;
58017;SDS011;43810;50.860;19.226;2023-02-15T00:11:21;46.58;;;21.70;;
58017;SDS011;43810;50.860;19.226;2023-02-15T00:14:05;49.35;;;21.60;;
58017;SDS011;43810;50.860;19.226;2023-02-15T00:16:33;47.03;;;21.52;;
58017;SDS011;43810;50.860;19.226;2023-02-15T00:19:00;44.72;;;21.98;;
58017;SDS011;43810;50.860;19.226;2023-02-15T00:21:27;44.28;;;21.38;;
58017;SDS011;43810;50.860;19.226;2023-02-15T00:23:55;43.60;;;21.38;;
58017;SDS011;43810;50.860;19.226;2023-02-15T00:26:22;49.75;;;21.15;;
58017;SDS011;43810;50.860;19.226;2023-02-15T00:28:48;45.42;;;21.13;;
58017;SDS011;43810;50.860;19.226;2023-02-15T00:31:14;52.90;;;22.13;;
58017;SDS011;43810;50.860;19.226;2023-02-15T00:33:40;41.15;;;19.27;;
58017;SDS011;43810;50.860;19.226;2023-02-15T00:36:07;37.83;;;17.80;;
58017;SDS011;43810;50.860;19.226;2023-02-15T00:38:34;39.95;;;18.80;;
58017;SDS011;43810;50.860;19.226;2023-02-15T00:41:02;40.63;;;19.48;;
58017;SDS011;43810;50.860;19.226;2023-02-15T00:43:29;36.65;;;18.80;;
58017;SDS011;43810;50.860;19.226;2023-02-15T00:45:56;36.92;;;18.27;;
58017;SDS011;43810;50.860;19.226;2023-02-15T00:48:22;32.17;;;17.00;;
58017;SDS011;43810;50.860;19.226;2023-02-15T00:50:49;36.22;;;17.27;;
58017;SDS011;43810;50.860;19.226;2023-02-15T00:53:20;32.08;;;17.55;;
58017;SDS011;43810;50.860;19.226;2023-02-15T00:55:47;43.58;;;19.50;;
58017;SDS011;43810;50.860;19.226;2023-02-15T00:58:13;37.80;;;18.23;;
58017;SDS011;43810;50.860;19.226;2023-02-15T01:00:40;33.20;;;17.55;;
58017;SDS011;43810;50.860;19.226;2023-02-15T01:03:08;35.63;;;17.27;;
58017;SDS011;43810;50.860;19.226;2023-02-15T01:05:35;37.67;;;17.13;;
58017;SDS011;43810;50.860;19.226;2023-02-15T01:08:01;39.60;;;17.80;;
58017;SDS011;43810;50.860;19.226;2023-02-15T01:10:27;37.83;;;18.58;;
58017;SDS011;43810;50.860;19.226;2023-02-15T01:12:54;39.80;;;18.38;;
58017;SDS011;43810;50.860;19.226;2023-02-15T01:15:21;40.20;;;19.17;;
58017;SDS011;43810;50.860;19.226;2023-02-15T01:17:47;41.00;;;19.67;;
58017;SDS011;43810;50.860;19.226;2023-02-15T01:20:18;39.65;;;19.50;;
58017;SDS011;43810;50.860;19.226;2023-02-15T01:22:48;42.15;;;20.10;;
58017;SDS011;43810;50.860;19.226;2023-02-15T01:25:19;34.45;;;18.27;;
58017;SDS011;43810;50.860;19.226;2023-02-15T01:27:46;40.00;;;18.52;;
58017;SDS011;43810;50.860;19.226;2023-02-15T01:30:13;43.58;;;20.40;;
58017;SDS011;43810;50.860;19.226;2023-02-15T01:32:39;46.13;;;21.35;;
58017;SDS011;43810;50.860;19.226;2023-02-15T01:35:06;43.17;;;19.58;;
58017;SDS011;43810;50.860;19.226;2023-02-15T01:37:32;41.40;;;21.70;;
58017;SDS011;43810;50.860;19.226;2023-02-15T01:39:59;48.90;;;21.33;;
58017;SDS011;43810;50.860;19.226;2023-02-15T01:42:26;47.20;;;20.63;;
58017;SDS011;43810;50.860;19.226;2023-02-15T01:44:57;43.90;;;20.52;;
58017;SDS011;43810;50.860;19.226;2023-02-15T01:47:37;40.22;;;19.85;;
58017;SDS011;43810;50.860;19.226;2023-02-15T01:55:23;36.33;;;19.08;;
58017;SDS011;43810;50.860;19.226;2023-02-15T01:57:52;35.15;;;18.23;;
58017;SDS011;43810;50.860;19.226;2023-02-15T02:00:18;40.35;;;19.17;;
58017;SDS011;43810;50.860;19.226;2023-02-15T02:02:44;39.85;;;18.25;;
58017;SDS011;43810;50.860;19.226;2023-02-15T02:05:14;36.95;;;18.42;;
58017;SDS011;43810;50.860;19.226;2023-02-15T02:07:41;42.10;;;20.50;;
58017;SDS011;43810;50.860;19.226;2023-02-15T02:10:11;39.47;;;19.75;;
58017;SDS011;43810;50.860;19.226;2023-02-15T02:12:39;43.60;;;20.27;;
58017;SDS011;43810;50.860;19.226;2023-02-15T02:15:07;43.58;;;20.13;;
58017;SDS011;43810;50.860;19.226;2023-02-15T02:20:26;44.67;;;20.75;;
58017;SDS011;43810;50.860;19.226;2023-02-15T02:25:53;49.65;;;20.65;;
58017;SDS011;43810;50.860;19.226;2023-02-15T02:39:36;42.72;;;19.98;;
58017;SDS011;43810;50.860;19.226;2023-02-15T02:42:18;45.60;;;19.33;;
58017;SDS011;43810;50.860;19.226;2023-02-15T02:44:51;43.53;;;19.52;;
58017;SDS011;43810;50.860;19.226;2023-02-15T02:47:26;40.80;;;19.55;;
58017;SDS011;43810;50.860;19.226;2023-02-15T02:49:58;39.08;;;18.63;;
58017;SDS011;43810;50.860;19.226;2023-02-15T02:57:48;42.05;;;18.30;;
58017;SDS011;43810;50.860;19.226;2023-02-15T03:00:17;42.97;;;19.20;;
58017;SDS011;43810;50.860;19.226;2023-02-15T03:02:45;41.45;;;18.73;;
58017;SDS011;43810;50.860;19.226;2023-02-15T03:05:16;36.97;;;18.60;;
58017;SDS011;43810;50.860;19.226;2023-02-15T03:07:47;40.78;;;19.85;;
58017;SDS011;43810;50.860;19.226;2023-02-15T03:10:18;43.20;;;20.33;;
58017;SDS011;43810;50.860;19.226;2023-02-15T03:12:47;44.67;;;19.90;;
58017;SDS011;43810;50.860;19.226;2023-02-15T03:15:16;43.63;;;19.25;;
58017;SDS011;43810;50.860;19.226;2023-02-15T03:17:47;45.42;;;20.52;;
58017;SDS011;43810;50.860;19.226;2023-02-15T03:20:30;44.75;;;20.65;;
58017;SDS011;43810;50.860;19.226;2023-02-15T03:23:00;47.85;;;21.00;;
58017;SDS011;43810;50.860;19.226;2023-02-15T03:25:37;43.85;;;20.95;;
58017;SDS011;43810;50.860;19.226;2023-02-15T03:28:07;39.35;;;19.40;;
58017;SDS011;43810;50.860;19.226;2023-02-15T03:30:37;40.03;;;19.55;;
58017;SDS011;43810;50.860;19.226;2023-02-15T03:33:05;44.70;;;21.05;;
58017;SDS011;43810;50.860;19.226;2023-02-15T03:35:46;48.60;;;21.23;;
58017;SDS011;43810;50.860;19.226;2023-02-15T03:38:20;39.25;;;18.52;;
58017;SDS011;43810;50.860;19.226;2023-02-15T03:40:50;41.35;;;18.08;;
58017;SDS011;43810;50.860;19.226;2023-02-15T03:46:21;38.65;;;18.02;;
58017;SDS011;43810;50.860;19.226;2023-02-15T03:48:51;43.65;;;18.45;;
58017;SDS011;43810;50.860;19.226;2023-02-15T03:51:20;37.72;;;17.50;;
58017;SDS011;43810;50.860;19.226;2023-02-15T03:56:36;43.72;;;19.13;;
58017;SDS011;43810;50.860;19.226;2023-02-15T03:59:05;38.75;;;18.10;;
58017;SDS011;43810;50.860;19.226;2023-02-15T04:04:47;42.28;;;18.63;;
58017;SDS011;43810;50.860;19.226;2023-02-15T04:07:13;39.90;;;18.40;;
58017;SDS011;43810;50.860;19.226;2023-02-15T04:09:39;44.72;;;19.02;;
58017;SDS011;43810;50.860;19.226;2023-02-15T04:12:23;44.00;;;18.63;;
58017;SDS011;43810;50.860;19.226;2023-02-15T04:14:49;40.03;;;18.23;;
58017;SDS011;43810;50.860;19.226;2023-02-15T04:17:35;39.42;;;18.48;;
58017;SDS011;43810;50.860;19.226;2023-02-15T04:20:02;39.40;;;17.75;;
58017;SDS011;43810;50.860;19.226;2023-02-15T04:22:47;43.47;;;20.30;;
58017;SDS011;43810;50.860;19.226;2023-02-15T04:25:31;38.10;;;17.38;;
58017;SDS011;43810;50.860;19.226;2023-02-15T04:27:57;37.13;;;17.45;;
58017;SDS011;43810;50.860;19.226;2023-02-15T04:30:24;42.80;;;19.67;;
58017;SDS011;43810;50.860;19.226;2023-02-15T04:32:50;43.30;;;18.35;;
58017;SDS011;43810;50.860;19.226;2023-02-15T04:35:17;46.35;;;19.23;;
58017;SDS011;43810;50.860;19.226;2023-02-15T04:37:43;41.78;;;19.60;;
58017;SDS011;43810;50.860;19.226;2023-02-15T04:40:10;40.20;;;18.88;;
58017;SDS011;43810;50.860;19.226;2023-02-15T04:42:38;42.30;;;19.35;;
58017;SDS011;43810;50.860;19.226;2023-02-15T04:45:04;44.70;;;20.40;;
58017;SDS011;43810;50.860;19.226;2023-02-15T04:47:30;44.28;;;20.88;;
58017;SDS011;43810;50.860;19.226;2023-02-15T04:49:56;43.75;;;20.25;;
58017;SDS011;43810;50.860;19.226;2023-02-15T04:52:22;45.60;;;20.13;;
58017;SDS011;43810;50.860;19.226;2023-02-15T04:54:48;46.17;;;21.38;;
58017;SDS011;43810;50.860;19.226;2023-02-15T04:57:13;40.15;;;17.98;;
58017;SDS011;43810;50.860;19.226;2023-02-15T04:59:39;43.63;;;19.67;;
58017;SDS011;43810;50.860;19.226;2023-02-15T05:02:05;45.38;;;18.73;;
58017;SDS011;43810;50.860;19.226;2023-02-15T05:04:31;44.67;;;19.45;;
58017;SDS011;43810;50.860;19.226;2023-02-15T05:06:57;41.53;;;19.42;;
58017;SDS011;43810;50.860;19.226;2023-02-15T05:09:23;41.90;;;18.30;;
58017;SDS011;43810;50.860;19.226;2023-02-15T05:11:48;40.53;;;17.73;;
58017;SDS011;43810;50.860;19.226;2023-02-15T05:14:15;37.80;;;16.60;;
58017;SDS011;43810;50.860;19.226;2023-02-15T05:16:40;37.75;;;17.65;;
58017;SDS011;43810;50.860;19.226;2023-02-15T05:19:06;36.00;;;18.42;;
58017;SDS011;43810;50.860;19.226;2023-02-15T05:21:32;39.22;;;18.15;;
58017;SDS011;43810;50.860;19.226;2023-02-15T05:23:58;36.28;;;17.42;;
58017;SDS011;43810;50.860;19.226;2023-02-15T05:26:24;39.15;;;18.23;;
58017;SDS011;43810;50.860;19.226;2023-02-15T05:29:09;42.20;;;17.85;;
58017;SDS011;43810;50.860;19.226;2023-02-15T05:31:35;37.33;;;17.25;;
58017;SDS011;43810;50.860;19.226;2023-02-15T05:34:02;37.78;;;17.52;;
58017;SDS011;43810;50.860;19.226;2023-02-15T05:36:28;40.83;;;17.38;;
58017;SDS011;43810;50.860;19.226;2023-02-15T05:38:54;41.53;;;19.33;;
58017;SDS011;43810;50.860;19.226;2023-02-15T05:41:21;41.45;;;18.48;;
58017;SDS011;43810;50.860;19.226;2023-02-15T05:43:47;38.17;;;18.10;;
58017;SDS011;43810;50.860;19.226;2023-02-15T05:46:13;42.13;;;19.10;;
58017;SDS011;43810;50.860;19.226;2023-02-15T05:48:39;44.92;;;18.80;;
58017;SDS011;43810;50.860;19.226;2023-02-15T05:51:08;40.47;;;18.15;;
58017;SDS011;43810;50.860;19.226;2023-02-15T05:53:38;37.50;;;17.30;;
58017;SDS011;43810;50.860;19.226;2023-02-15T05:56:05;51.25;;;19.55;;
58017;SDS011;43810;50.860;19.226;2023-02-15T05:58:36;46.10;;;21.35;;
58017;SDS011;43810;50.860;19.226;2023-02-15T06:01:14;46.53;;;19.38;;
58017;SDS011;43810;50.860;19.226;2023-02-15T06:03:43;42.70;;;17.58;;
58017;SDS011;43810;50.860;19.226;2023-02-15T06:06:09;47.28;;;19.15;;
58017;SDS011;43810;50.860;19.226;2023-02-15T06:08:35;40.30;;;17.20;;
58017;SDS011;43810;50.860;19.226;2023-02-15T06:11:02;40.83;;;18.52;;
58017;SDS011;43810;50.860;19.226;2023-02-15T06:13:30;39.70;;;18.25;;
58017;SDS011;43810;50.860;19.226;2023-02-15T06:15:56;44.08;;;18.52;;
58017;SDS011;43810;50.860;19.226;2023-02-15T06:18:22;40.67;;;17.95;;
58017;SDS011;43810;50.860;19.226;2023-02-15T06:20:48;48.65;;;18.13;;
58017;SDS011;43810;50.860;19.226;2023-02-15T06:23:14;40.95;;;18.20;;
58017;SDS011;43810;50.860;19.226;2023-02-15T06:25:40;40.15;;;17.77;;
58017;SDS011;43810;50.860;19.226;2023-02-15T06:28:06;43.42;;;18.70;;
58017;SDS011;43810;50.860;19.226;2023-02-15T06:30:32;41.35;;;17.77;;
58017;SDS011;43810;50.860;19.226;2023-02-15T06:32:58;47.22;;;19.38;;
58017;SDS011;43810;50.860;19.226;2023-02-15T06:35:24;46.17;;;20.08;;
58017;SDS011;43810;50.860;19.226;2023-02-15T06:37:50;45.25;;;19.38;;
58017;SDS011;43810;50.860;19.226;2023-02-15T06:40:15;48.15;;;18.98;;
58017;SDS011;43810;50.860;19.226;2023-02-15T06:42:42;45.45;;;18.92;;
58017;SDS011;43810;50.860;19.226;2023-02-15T06:45:08;45.80;;;19.23;;
58017;SDS011;43810;50.860;19.226;2023-02-15T06:47:34;49.20;;;20.35;;
58017;SDS011;43810;50.860;19.226;2023-02-15T06:50:00;49.35;;;20.25;;
58017;SDS011;43810;50.860;19.226;2023-02-15T06:52:27;47.70;;;20.67;;
58017;SDS011;43810;50.860;19.226;2023-02-15T06:54:53;46.13;;;20.10;;
58017;SDS011;43810;50.860;19.226;2023-02-15T06:57:19;43.25;;;18.42;;
58017;SDS011;43810;50.860;19.226;2023-02-15T06:59:45;45.40;;;19.20;;
58017;SDS011;43810;50.860;19.226;2023-02-15T07:02:11;44.53;;;18.95;;
58017;SDS011;43810;50.860;19.226;2023-02-15T07:04:37;44.55;;;19.48;;
58017;SDS011;43810;50.860;19.226;2023-02-15T07:07:03;49.72;;;18.77;;
58017;SDS011;43810;50.860;19.226;2023-02-15T07:09:32;49.78;;;19.35;;
58017;SDS011;43810;50.860;19.226;2023-02-15T07:11:58;44.75;;;20.33;;
58017;SDS011;43810;50.860;19.226;2023-02-15T07:14:43;41.00;;;17.83;;
58017;SDS011;43810;50.860;19.226;2023-02-15T07:17:09;46.70;;;18.23;;
58017;SDS011;43810;50.860;19.226;2023-02-15T07:19:34;46.45;;;18.80;;
58017;SDS011;43810;50.860;19.226;2023-02-15T07:22:01;48.20;;;18.60;;
58017;SDS011;43810;50.860;19.226;2023-02-15T07:24:28;44.35;;;18.27;;
58017;SDS011;43810;50.860;19.226;2023-02-15T07:26:54;47.53;;;19.52;;
58017;SDS011;43810;50.860;19.226;2023-02-15T07:29:20;43.67;;;19.20;;
58017;SDS011;43810;50.860;19.226;2023-02-15T07:31:46;44.88;;;19.67;;
58017;SDS011;43810;50.860;19.226;2023-02-15T07:34:12;49.25;;;19.92;;
58017;SDS011;43810;50.860;19.226;2023-02-15T07:36:38;44.50;;;18.92;;
58017;SDS011;43810;50.860;19.226;2023-02-15T07:39:03;46.85;;;18.90;;
58017;SDS011;43810;50.860;19.226;2023-02-15T07:41:29;40.28;;;17.13;;
58017;SDS011;43810;50.860;19.226;2023-02-15T07:43:55;40.58;;;16.38;;
58017;SDS011;43810;50.860;19.226;2023-02-15T07:46:21;45.17;;;18.75;;
58017;SDS011;43810;50.860;19.226;2023-02-15T07:48:47;43.33;;;17.17;;
58017;SDS011;43810;50.860;19.226;2023-02-15T07:51:13;42.70;;;17.63;;
58017;SDS011;43810;50.860;19.226;2023-02-15T07:53:39;49.80;;;19.35;;
58017;SDS011;43810;50.860;19.226;2023-02-15T07:56:08;52.60;;;20.33;;
58017;SDS011;43810;50.860;19.226;2023-02-15T07:58:36;47.95;;;19.92;;
58017;SDS011;43810;50.860;19.226;2023-02-15T08:03:45;46.78;;;18.10;;
58017;SDS011;43810;50.860;19.226;2023-02-15T08:06:11;41.20;;;18.02;;
58017;SDS011;43810;50.860;19.226;2023-02-15T08:08:38;47.38;;;18.27;;
58017;SDS011;43810;50.860;19.226;2023-02-15T08:11:21;46.72;;;18.02;;
58017;SDS011;43810;50.860;19.226;2023-02-15T08:16:38;41.75;;;17.70;;
58017;SDS011;43810;50.860;19.226;2023-02-15T08:21:44;49.63;;;18.50;;
58017;SDS011;43810;50.860;19.226;2023-02-15T08:24:12;45.97;;;18.10;;
58017;SDS011;43810;50.860;19.226;2023-02-15T08:26:40;49.55;;;18.63;;
58017;SDS011;43810;50.860;19.226;2023-02-15T08:29:06;44.55;;;18.02;;
58017;SDS011;43810;50.860;19.226;2023-02-15T08:31:33;48.63;;;21.13;;
58017;SDS011;43810;50.860;19.226;2023-02-15T08:34:00;43.75;;;18.45;;
58017;SDS011;43810;50.860;19.226;2023-02-15T08:36:27;46.83;;;18.40;;
58017;SDS011;43810;50.860;19.226;2023-02-15T08:38:57;47.88;;;18.75;;
58017;SDS011;43810;50.860;19.226;2023-02-15T08:41:25;47.58;;;18.52;;
58017;SDS011;43810;50.860;19.226;2023-02-15T08:43:56;41.35;;;17.58;;
58017;SDS011;43810;50.860;19.226;2023-02-15T08:46:31;45.15;;;18.40;;
58017;SDS011;43810;50.860;19.226;2023-02-15T08:48:58;44.13;;;17.80;;
58017;SDS011;43810;50.860;19.226;2023-02-15T08:51:25;42.63;;;16.90;;
58017;SDS011;43810;50.860;19.226;2023-02-15T08:53:54;44.78;;;17.25;;
58017;SDS011;43810;50.860;19.226;2023-02-15T08:56:26;44.03;;;18.80;;
58017;SDS011;43810;50.860;19.226;2023-02-15T08:58:55;40.50;;;17.20;;
58017;SDS011;43810;50.860;19.226;2023-02-15T09:01:23;48.13;;;17.45;;
58017;SDS011;43810;50.860;19.226;2023-02-15T09:03:54;42.88;;;17.15;;
58017;SDS011;43810;50.860;19.226;2023-02-15T09:06:22;48.75;;;18.17;;
58017;SDS011;43810;50.860;19.226;2023-02-15T09:08:48;43.10;;;17.65;;
58017;SDS011;43810;50.860;19.226;2023-02-15T09:11:16;41.47;;;17.10;;
58017;SDS011;43810;50.860;19.226;2023-02-15T09:13:48;43.80;;;17.52;;
58017;SDS011;43810;50.860;19.226;2023-02-15T09:16:17;42.03;;;17.23;;
58017;SDS011;43810;50.860;19.226;2023-02-15T09:18:42;42.97;;;17.25;;
58017;SDS011;43810;50.860;19.226;2023-02-15T09:21:10;39.53;;;16.35;;
58017;SDS011;43810;50.860;19.226;2023-02-15T09:23:40;42.38;;;16.70;;
58017;SDS011;43810;50.860;19.226;2023-02-15T09:26:14;40.05;;;17.13;;
58017;SDS011;43810;50.860;19.226;2023-02-15T09:28:42;37.78;;;16.77;;
58017;SDS011;43810;50.860;19.226;2023-02-15T09:31:16;33.42;;;15.05;;
58017;SDS011;43810;50.860;19.226;2023-02-15T09:33:44;37.95;;;16.02;;
58017;SDS011;43810;50.860;19.226;2023-02-15T09:36:28;39.97;;;16.27;;
58017;SDS011;43810;50.860;19.226;2023-02-15T09:38:57;37.15;;;15.55;;
58017;SDS011;43810;50.860;19.226;2023-02-15T09:57:49;34.60;;;14.45;;
58017;SDS011;43810;50.860;19.226;2023-02-15T10:09:12;32.05;;;15.23;;
58017;SDS011;43810;50.860;19.226;2023-02-15T10:11:49;33.40;;;14.32;;
58017;SDS011;43810;50.860;19.226;2023-02-15T10:20:29;38.05;;;15.20;;
58017;SDS011;43810;50.860;19.226;2023-02-15T10:23:17;35.58;;;16.15;;
58017;SDS011;43810;50.860;19.226;2023-02-15T10:39:43;38.35;;;15.73;;
58017;SDS011;43810;50.860;19.226;2023-02-15T10:59:19;39.20;;;16.88;;
58017;SDS011;43810;50.860;19.226;2023-02-15T11:07:19;38.42;;;16.85;;
58017;SDS011;43810;50.860;19.226;2023-02-15T11:09:59;40.85;;;18.55;;
58017;SDS011;43810;50.860;19.226;2023-02-15T11:12:37;32.92;;;17.10;;
58017;SDS011;43810;50.860;19.226;2023-02-15T11:18:05;37.22;;;17.13;;
58017;SDS011;43810;50.860;19.226;2023-02-15T11:20:38;37.35;;;17.38;;
58017;SDS011;43810;50.860;19.226;2023-02-15T11:23:19;36.47;;;16.67;;
58017;SDS011;43810;50.860;19.226;2023-02-15T11:25:56;33.70;;;17.08;;
58017;SDS011;43810;50.860;19.226;2023-02-15T11:28:30;41.60;;;18.52;;
58017;SDS011;43810;50.860;19.226;2023-02-15T11:31:02;35.22;;;15.90;;
58017;SDS011;43810;50.860;19.226;2023-02-15T11:33:39;34.78;;;16.75;;
58017;SDS011;43810;50.860;19.226;2023-02-15T11:36:15;37.47;;;17.42;;
58017;SDS011;43810;50.860;19.226;2023-02-15T11:38:44;37.38;;;16.90;;
58017;SDS011;43810;50.860;19.226;2023-02-15T11:41:18;37.00;;;17.92;;
58017;SDS011;43810;50.860;19.226;2023-02-15T11:46:52;38.17;;;17.30;;
58017;SDS011;43810;50.860;19.226;2023-02-15T11:49:29;37.10;;;17.58;;
58017;SDS011;43810;50.860;19.226;2023-02-15T11:51:57;37.55;;;17.30;;
58017;SDS011;43810;50.860;19.226;2023-02-15T11:54:27;40.72;;;17.85;;
58017;SDS011;43810;50.860;19.226;2023-02-15T11:56:56;38.13;;;19.08;;
58017;SDS011;43810;50.860;19.226;2023-02-15T11:59:51;30.40;;;16.08;;
58017;SDS011;43810;50.860;19.226;2023-02-15T12:02:23;36.10;;;17.80;;
58017;SDS011;43810;50.860;19.226;2023-02-15T12:04:54;34.45;;;16.17;;
58017;SDS011;43810;50.860;19.226;2023-02-15T12:07:25;37.08;;;17.75;;
58017;SDS011;43810;50.860;19.226;2023-02-15T12:15:34;37.88;;;16.13;;
58017;SDS011;43810;50.860;19.226;2023-02-15T12:18:01;36.60;;;18.27;;
58017;SDS011;43810;50.860;19.226;2023-02-15T12:20:28;37.58;;;19.05;;
58017;SDS011;43810;50.860;19.226;2023-02-15T12:23:04;35.05;;;17.02;;
58017;SDS011;43810;50.860;19.226;2023-02-15T12:25:52;35.13;;;17.08;;
58017;SDS011;43810;50.860;19.226;2023-02-15T12:28:25;34.30;;;17.63;;
58017;SDS011;43810;50.860;19.226;2023-02-15T12:30:56;30.00;;;17.10;;
58017;SDS011;43810;50.860;19.226;2023-02-15T12:41:44;32.60;;;16.85;;
58017;SDS011;43810;50.860;19.226;2023-02-15T12:44:23;29.40;;;15.68;;
58017;SDS011;43810;50.860;19.226;2023-02-15T12:49:26;35.80;;;17.02;;
58017;SDS011;43810;50.860;19.226;2023-02-15T12:52:00;35.83;;;16.80;;
58017;SDS011;43810;50.860;19.226;2023-02-15T12:54:38;29.67;;;15.18;;
58017;SDS011;43810;50.860;19.226;2023-02-15T12:57:17;26.52;;;15.88;;
58017;SDS011;43810;50.860;19.226;2023-02-15T12:59:55;28.90;;;16.52;;
58017;SDS011;43810;50.860;19.226;2023-02-15T13:02:30;30.92;;;16.00;;
58017;SDS011;43810;50.860;19.226;2023-02-15T13:07:44;31.58;;;17.25;;
58017;SDS011;43810;50.860;19.226;2023-02-15T13:10:30;29.05;;;16.90;;
58017;SDS011;43810;50.860;19.226;2023-02-15T13:13:00;36.38;;;15.93;;
58017;SDS011;43810;50.860;19.226;2023-02-15T13:15:33;23.30;;;15.20;;
58017;SDS011;43810;50.860;19.226;2023-02-15T13:18:02;25.77;;;15.65;;
58017;SDS011;43810;50.860;19.226;2023-02-15T13:20:31;30.13;;;17.60;;
58017;SDS011;43810;50.860;19.226;2023-02-15T13:23:04;27.83;;;18.20;;
58017;SDS011;43810;50.860;19.226;2023-02-15T13:25:40;29.58;;;17.55;;
58017;SDS011;43810;50.860;19.226;2023-02-15T13:28:16;38.17;;;20.15;;
58017;SDS011;43810;50.860;19.226;2023-02-15T13:30:46;31.75;;;17.98;;
58017;SDS011;43810;50.860;19.226;2023-02-15T13:36:05;31.38;;;16.65;;
58017;SDS011;43810;50.860;19.226;2023-02-15T13:41:15;25.83;;;16.63;;
58017;SDS011;43810;50.860;19.226;2023-02-15T13:43:52;28.45;;;18.58;;
58017;SDS011;43810;50.860;19.226;2023-02-15T13:52:27;33.03;;;18.90;;
58017;SDS011;43810;50.860;19.226;2023-02-15T14:00:52;34.58;;;18.23;;
58017;SDS011;43810;50.860;19.226;2023-02-15T14:20:34;32.97;;;18.05;;
58017;SDS011;43810;50.860;19.226;2023-02-15T14:23:05;31.77;;;17.25;;
58017;SDS011;43810;50.860;19.226;2023-02-15T14:25:45;33.63;;;18.27;;
58017;SDS011;43810;50.860;19.226;2023-02-15T14:30:49;35.45;;;18.10;;
58017;SDS011;43810;50.860;19.226;2023-02-15T14:34:00;33.20;;;18.25;;
58017;SDS011;43810;50.860;19.226;2023-02-15T14:36:07;40.92;;;18.80;;
58017;SDS011;43810;50.860;19.226;2023-02-15T14:47:04;38.15;;;21.67;;
58017;SDS011;43810;50.860;19.226;2023-02-15T14:49:38;43.40;;;22.48;;
58017;SDS011;43810;50.860;19.226;2023-02-15T14:52:09;42.28;;;21.50;;
58017;SDS011;43810;50.860;19.226;2023-02-15T15:02:18;41.05;;;20.98;;
58017;SDS011;43810;50.860;19.226;2023-02-15T15:05:07;46.15;;;20.98;;
58017;SDS011;43810;50.860;19.226;2023-02-15T15:12:49;44.50;;;21.70;;
58017;SDS011;43810;50.860;19.226;2023-02-15T15:31:20;46.83;;;22.70;;
58017;SDS011;43810;50.860;19.226;2023-02-15T15:39:49;52.40;;;23.60;;
58017;SDS011;43810;50.860;19.226;2023-02-15T15:47:45;56.95;;;26.13;;
58017;SDS011;43810;50.860;19.226;2023-02-15T15:50:19;56.45;;;24.80;;
58017;SDS011;43810;50.860;19.226;2023-02-15T15:52:48;53.10;;;24.17;;
58017;SDS011;43810;50.860;19.226;2023-02-15T15:55:18;52.75;;;24.55;;
58017;SDS011;43810;50.860;19.226;2023-02-15T15:57:48;57.63;;;24.55;;
58017;SDS011;43810;50.860;19.226;2023-02-15T16:03:16;58.33;;;25.48;;
58017;SDS011;43810;50.860;19.226;2023-02-15T16:05:47;55.22;;;24.08;;
58017;SDS011;43810;50.860;19.226;2023-02-15T16:11:10;72.30;;;29.67;;
58017;SDS011;43810;50.860;19.226;2023-02-15T16:13:41;93.25;;;30.50;;
58017;SDS011;43810;50.860;19.226;2023-02-15T16:16:08;94.32;;;29.98;;
58017;SDS011;43810;50.860;19.226;2023-02-15T16:18:33;88.60;;;30.65;;
58017;SDS011;43810;50.860;19.226;2023-02-15T16:21:04;78.75;;;27.45;;
58017;SDS011;43810;50.860;19.226;2023-02-15T16:28:59;51.22;;;22.50;;
58017;SDS011;43810;50.860;19.226;2023-02-15T16:31:26;63.83;;;24.83;;
58017;SDS011;43810;50.860;19.226;2023-02-15T16:33:55;85.32;;;34.40;;
58017;SDS011;43810;50.860;19.226;2023-02-15T16:36:26;94.45;;;34.60;;
58017;SDS011;43810;50.860;19.226;2023-02-15T16:43:53;66.47;;;25.55;;
58017;SDS011;43810;50.860;19.226;2023-02-15T16:46:31;57.78;;;23.63;;
58017;SDS011;43810;50.860;19.226;2023-02-15T16:49:02;65.60;;;26.00;;
58017;SDS011;43810;50.860;19.226;2023-02-15T16:51:33;66.53;;;26.35;;
58017;SDS011;43810;50.860;19.226;2023-02-15T16:54:03;65.28;;;28.20;;
58017;SDS011;43810;50.860;19.226;2023-02-15T16:56:32;76.82;;;29.65;;
58017;SDS011;43810;50.860;19.226;2023-02-15T16:58:59;78.25;;;26.58;;
58017;SDS011;43810;50.860;19.226;2023-02-15T17:01:27;64.55;;;27.38;;
58017;SDS011;43810;50.860;19.226;2023-02-15T17:09:32;71.13;;;25.73;;
58017;SDS011;43810;50.860;19.226;2023-02-15T17:11:59;67.93;;;26.88;;
58017;SDS011;43810;50.860;19.226;2023-02-15T17:14:28;58.35;;;25.85;;
58017;SDS011;43810;50.860;19.226;2023-02-15T17:17:06;72.47;;;28.55;;
58017;SDS011;43810;50.860;19.226;2023-02-15T17:19:44;69.60;;;28.48;;
58017;SDS011;43810;50.860;19.226;2023-02-15T17:22:18;74.90;;;30.23;;
58017;SDS011;43810;50.860;19.226;2023-02-15T17:24:47;67.43;;;29.60;;
58017;SDS011;43810;50.860;19.226;2023-02-15T17:27:19;79.93;;;34.65;;
58017;SDS011;43810;50.860;19.226;2023-02-15T17:29:50;77.97;;;33.80;;
58017;SDS011;43810;50.860;19.226;2023-02-15T17:32:21;85.18;;;36.17;;
58017;SDS011;43810;50.860;19.226;2023-02-15T17:34:50;84.38;;;33.92;;
58017;SDS011;43810;50.860;19.226;2023-02-15T17:39:57;88.43;;;36.15;;
58017;SDS011;43810;50.860;19.226;2023-02-15T17:42:25;88.38;;;36.28;;
58017;SDS011;43810;50.860;19.226;2023-02-15T17:44:50;98.65;;;37.45;;
58017;SDS011;43810;50.860;19.226;2023-02-15T17:47:18;96.40;;;39.05;;
58017;SDS011;43810;50.860;19.226;2023-02-15T17:49:46;86.22;;;35.70;;
58017;SDS011;43810;50.860;19.226;2023-02-15T17:52:15;82.75;;;34.92;;
58017;SDS011;43810;50.860;19.226;2023-02-15T17:54:42;82.95;;;34.03;;
58017;SDS011;43810;50.860;19.226;2023-02-15T17:57:27;77.97;;;31.63;;
58017;SDS011;43810;50.860;19.226;2023-02-15T17:59:54;78.43;;;32.45;;
58017;SDS011;43810;50.860;19.226;2023-02-15T18:02:38;81.93;;;31.88;;
58017;SDS011;43810;50.860;19.226;2023-02-15T18:05:23;70.32;;;30.42;;
58017;SDS011;43810;50.860;19.226;2023-02-15T18:08:10;75.18;;;30.67;;
58017;SDS011;43810;50.860;19.226;2023-02-15T18:10:56;91.85;;;35.15;;
58017;SDS011;43810;50.860;19.226;2023-02-15T18:13:41;94.32;;;36.58;;
58017;SDS011;43810;50.860;19.226;2023-02-15T18:16:10;101.32;;;41.05;;
58017;SDS011;43810;50.860;19.226;2023-02-15T18:18:39;102.13;;;40.03;;
58017;SDS011;43810;50.860;19.226;2023-02-15T18:21:05;106.22;;;41.17;;
58017;SDS011;43810;50.860;19.226;2023-02-15T18:23:34;98.93;;;38.63;;
58017;SDS011;43810;50.860;19.226;2023-02-15T18:26:00;104.22;;;39.25;;
58017;SDS011;43810;50.860;19.226;2023-02-15T18:28:26;94.15;;;37.80;;
58017;SDS011;43810;50.860;19.226;2023-02-15T18:30:51;98.78;;;36.90;;
58017;SDS011;43810;50.860;19.226;2023-02-15T18:33:38;104.65;;;36.20;;